Time;durP1;ratioP1;P1;durP2;ratioP2;P2;SDS_P1;SDS_P2;PMS_P1;PMS_P2;Temp;Humidity;BMP_temperature;BMP_pressure;BME280_temperature;BME280_humidity;BME280_pressure;Samples;Min_cycle;Max_cycle;Signal;HPM_P1;HPM_P2
2021/10/21 00:00:37;;;;;;;5.20;4.70;;;15.10;99.90;;;;;;5056699;28;20225;-92
2021/10/21 00:03:13;;;;;;;5.50;5.00;;;15.00;99.90;;;;;;5036939;28;20210;-92
2021/10/21 00:05:42;;;;;;;5.43;4.93;;;15.00;99.90;;;;;;5058296;28;20260;-91
2021/10/21 00:08:16;;;;;;;6.00;5.40;;;15.00;99.90;;;;;;5036837;28;20303;-92
2021/10/21 00:10:49;;;;;;;5.53;4.83;;;15.00;99.90;;;;;;5057219;28;20808;-91
2021/10/21 00:13:21;;;;;;;5.03;4.53;;;15.00;99.90;;;;;;5056066;28;20235;-92
2021/10/21 00:15:49;;;;;;;7.37;4.80;;;15.10;99.90;;;;;;5017799;28;20543;-91
2021/10/21 00:18:15;;;;;;;5.33;4.70;;;15.10;99.90;;;;;;5041217;28;20211;-91
2021/10/21 00:20:44;;;;;;;6.97;4.90;;;15.10;99.90;;;;;;5060741;28;20173;-92
2021/10/21 00:23:10;;;;;;;5.37;4.30;;;15.10;99.90;;;;;;5075786;28;20201;-92
2021/10/21 00:25:36;;;;;;;5.07;4.17;;;15.10;99.90;;;;;;5073075;28;20213;-91
2021/10/21 00:28:12;;;;;;;4.60;4.20;;;15.10;99.90;;;;;;5054520;28;20228;-92
2021/10/21 00:30:47;;;;;;;8.47;4.40;;;15.10;99.90;;;;;;5038341;28;20193;-92
2021/10/21 00:33:30;;;;;;;9.67;4.60;;;15.10;99.90;;;;;;5037186;28;20231;-92
2021/10/21 00:36:14;;;;;;;5.00;4.27;;;15.20;99.90;;;;;;5020670;28;20205;-92
2021/10/21 00:38:56;;;;;;;4.73;3.80;;;15.10;99.90;;;;;;5037736;28;20188;-92
2021/10/21 00:41:54;;;;;;;4.47;4.07;;;15.10;99.90;;;;;;5022744;28;20190;-92
2021/10/21 00:44:33;;;;;;;4.80;4.40;;;15.20;99.90;;;;;;5030353;28;20227;-92
2021/10/21 00:47:25;;;;;;;4.37;3.97;;;15.10;99.90;;;;;;5034217;28;20188;-92
2021/10/21 00:50:19;;;;;;;3.73;3.43;;;15.10;99.90;;;;;;5035748;28;20250;-92
2021/10/21 00:56:22;;;;;;;3.60;3.30;;;15.20;99.90;;;;;;5017909;28;20231;-92
2021/10/21 00:59:28;;;;;;;;;;;;;;;;;;;;;
2021/10/21 01:02:04;;;;;;;4.17;3.87;;;15.20;99.90;;;;;;5043266;28;20275;-91
2021/10/21 01:04:33;;;;;;;5.10;4.60;;;15.30;99.90;;;;;;5039340;28;20210;-92
2021/10/21 01:07:28;;;;;;;5.50;5.07;;;15.30;99.90;;;;;;5040612;28;20207;-92
2021/10/21 01:09:57;;;;;;;5.60;5.10;;;15.30;99.90;;;;;;5015299;28;20204;-92
2021/10/21 01:18:37;;;;;;;6.23;5.47;;;15.40;99.90;;;;;;5058378;28;20722;-92
2021/10/21 01:22:12;;;;;;;6.60;6.00;;;15.30;99.90;;;;;;5052049;28;20293;-92
2021/10/21 01:24:37;;;;;;;6.53;5.93;;;15.40;99.90;;;;;;5101262;22;20234;-84
2021/10/21 01:27:03;;;;;;;5.63;5.13;;;15.50;99.90;;;;;;5103047;28;20209;-85
2021/10/21 01:29:29;;;;;;;5.80;5.30;;;15.50;99.90;;;;;;5101088;28;20293;-88
2021/10/21 01:31:55;;;;;;;6.13;5.63;;;15.60;99.90;;;;;;5079125;28;20234;-89
2021/10/21 01:34:21;;;;;;;5.77;5.07;;;15.70;99.90;;;;;;5079761;28;20320;-89
2021/10/21 01:36:53;;;;;;;5.33;4.63;;;15.70;99.90;;;;;;5078024;28;20225;-88
2021/10/21 01:39:20;;;;;;;5.03;4.63;;;15.70;99.90;;;;;;5097816;28;20538;-89
2021/10/21 01:41:46;;;;;;;4.03;3.73;;;15.80;99.90;;;;;;5099029;28;20197;-89
2021/10/21 01:44:11;;;;;;;5.13;4.30;;;15.80;99.90;;;;;;5078969;28;20556;-90
2021/10/21 01:46:39;;;;;;;4.43;4.13;;;15.80;99.90;;;;;;5090958;28;20270;-88
2021/10/21 01:49:04;;;;;;;4.47;4.07;;;15.80;99.90;;;;;;5079499;28;20287;-90
2021/10/21 01:51:31;;;;;;;4.77;3.90;;;15.90;99.90;;;;;;5098411;28;20214;-90
2021/10/21 01:53:56;;;;;;;4.30;3.90;;;15.90;99.90;;;;;;5087112;28;20201;-85
2021/10/21 01:56:23;;;;;;;5.10;3.47;;;16.00;99.90;;;;;;5097207;28;20243;-85
2021/10/21 01:58:50;;;;;;;3.83;2.97;;;16.00;99.90;;;;;;5099571;28;20701;-88
2021/10/21 02:01:15;;;;;;;2.73;2.53;;;16.20;99.90;;;;;;5079924;28;20198;-90
2021/10/21 02:03:41;;;;;;;3.23;2.93;;;16.20;99.50;;;;;;5097550;28;20195;-86
2021/10/21 02:06:07;;;;;;;3.27;2.97;;;16.30;98.80;;;;;;5090775;28;20730;-88
2021/10/21 02:08:33;;;;;;;3.00;2.80;;;16.20;98.30;;;;;;5086866;28;20190;-90
2021/10/21 02:10:58;;;;;;;2.97;2.70;;;16.30;98.40;;;;;;5098291;28;20284;-90
2021/10/21 02:13:24;;;;;;;4.87;2.90;;;16.40;97.30;;;;;;5095245;28;20229;-90
2021/10/21 02:15:50;;;;;;;3.40;3.10;;;16.30;97.60;;;;;;5097097;28;20210;-88
2021/10/21 02:18:15;;;;;;;4.47;2.80;;;16.40;97.20;;;;;;5097792;28;20244;-90
2021/10/21 02:20:41;;;;;;;3.30;3.00;;;16.40;96.60;;;;;;5086880;28;20211;-89
2021/10/21 02:23:07;;;;;;;2.90;2.60;;;16.40;96.70;;;;;;5070164;28;20273;-89
2021/10/21 02:25:33;;;;;;;2.90;2.63;;;16.40;96.70;;;;;;5098084;28;20206;-89
2021/10/21 02:27:58;;;;;;;3.47;2.73;;;16.40;96.50;;;;;;5097978;28;20212;-88
2021/10/21 02:30:24;;;;;;;2.90;2.70;;;16.40;98.60;;;;;;5096733;28;20245;-89
2021/10/21 02:32:50;;;;;;;3.70;2.77;;;16.20;99.50;;;;;;5098748;28;20233;-89
2021/10/21 02:35:16;;;;;;;2.93;2.73;;;16.20;99.80;;;;;;5082002;28;20240;-88
2021/10/21 02:37:42;;;;;;;2.93;2.73;;;16.10;99.90;;;;;;5096022;28;20615;-90
2021/10/21 02:40:11;;;;;;;3.73;3.40;;;16.10;99.90;;;;;;5101131;28;20211;-89
2021/10/21 02:42:37;;;;;;;3.23;3.03;;;16.00;99.90;;;;;;5101791;28;20207;-89
2021/10/21 02:45:05;;;;;;;3.57;3.27;;;16.00;99.90;;;;;;5084257;28;20194;-88
2021/10/21 02:47:31;;;;;;;3.87;2.93;;;15.90;99.90;;;;;;5099141;28;20184;-89
2021/10/21 02:49:56;;;;;;;6.00;3.07;;;16.10;99.30;;;;;;5100683;28;20222;-89
2021/10/21 02:52:22;;;;;;;4.40;2.80;;;16.20;97.50;;;;;;5082552;28;20560;-88
2021/10/21 02:54:47;;;;;;;4.23;2.60;;;16.20;96.80;;;;;;5100273;28;20264;-88
2021/10/21 02:57:13;;;;;;;2.63;2.43;;;16.40;93.50;;;;;;5080561;28;20191;-88
2021/10/21 02:59:39;;;;;;;4.30;2.50;;;16.30;93.80;;;;;;5097793;28;20209;-89
2021/10/21 03:02:04;;;;;;;3.43;2.63;;;16.20;95.40;;;;;;5099197;28;20176;-86
2021/10/21 03:04:30;;;;;;;3.47;2.60;;;16.20;96.10;;;;;;5078035;28;20205;-88
2021/10/21 03:06:56;;;;;;;3.30;3.00;;;16.20;96.40;;;;;;5091396;28;20386;-88
2021/10/21 03:09:21;;;;;;;5.37;2.77;;;16.10;97.70;;;;;;5075737;28;20203;-88
2021/10/21 03:11:47;;;;;;;2.60;2.40;;;16.10;97.10;;;;;;5093024;28;20187;-88
2021/10/21 03:14:13;;;;;;;2.70;2.50;;;16.10;93.80;;;;;;5072714;28;20224;-89
2021/10/21 03:16:39;;;;;;;2.47;2.27;;;16.10;91.10;;;;;;5093877;28;20272;-88
2021/10/21 03:19:06;;;;;;;1.67;1.57;;;16.00;91.10;;;;;;5075994;28;20207;-89
2021/10/21 03:21:33;;;;;;;5.30;1.77;;;16.10;85.50;;;;;;5088555;28;20659;-88
2021/10/21 03:23:59;;;;;;;1.70;1.50;;;16.20;80.80;;;;;;5091241;28;20315;-89
2021/10/21 03:26:25;;;;;;;3.57;1.87;;;16.10;77.60;;;;;;5098137;28;20228;-88
2021/10/21 03:28:52;;;;;;;2.47;1.50;;;16.10;76.50;;;;;;5077833;28;20215;-88
2021/10/21 03:31:18;;;;;;;1.97;1.87;;;16.00;74.20;;;;;;5100308;28;20726;-89
2021/10/21 03:33:45;;;;;;;3.53;1.60;;;15.90;74.30;;;;;;5100063;28;20225;-88
2021/10/21 03:36:10;;;;;;;1.97;1.40;;;15.80;73.70;;;;;;5081045;28;20179;-88
2021/10/21 03:38:36;;;;;;;4.47;1.63;;;15.80;72.30;;;;;;5097217;28;20181;-88
2021/10/21 03:41:03;;;;;;;2.60;1.50;;;15.80;72.90;;;;;;5049791;28;20188;-87
2021/10/21 03:43:29;;;;;;;4.57;1.80;;;15.70;72.50;;;;;;5103133;28;20713;-89
2021/10/21 03:45:55;;;;;;;4.47;1.50;;;15.60;72.50;;;;;;5104288;28;20219;-87
2021/10/21 03:48:21;;;;;;;1.53;1.43;;;15.60;70.90;;;;;;5088308;28;20195;-89
2021/10/21 03:50:47;;;;;;;2.53;1.70;;;15.60;69.90;;;;;;5106002;28;20229;-89
2021/10/21 03:53:13;;;;;;;2.10;1.53;;;15.50;72.40;;;;;;5056950;28;20220;-87
2021/10/21 03:55:40;;;;;;;2.77;2.00;;;15.40;72.10;;;;;;5102020;28;20192;-89
2021/10/21 03:58:05;;;;;;;8.17;2.17;;;15.40;70.60;;;;;;5064372;28;20183;-88
2021/10/21 04:00:31;;;;;;;4.60;1.93;;;15.30;69.00;;;;;;5084483;28;20225;-88
2021/10/21 04:02:57;;;;;;;8.33;2.07;;;15.30;67.20;;;;;;5093152;28;20206;-89
2021/10/21 04:05:23;;;;;;;12.07;3.70;;;15.30;65.70;;;;;;5084571;28;20194;-88
2021/10/21 04:07:50;;;;;;;10.73;3.33;;;15.10;67.60;;;;;;5084642;28;20194;-90
2021/10/21 04:10:17;;;;;;;6.90;1.83;;;15.00;67.20;;;;;;5082689;28;20224;-86
2021/10/21 04:12:42;;;;;;;7.53;2.20;;;15.00;65.10;;;;;;5101876;28;20216;-88
2021/10/21 04:15:09;;;;;;;9.80;2.50;;;15.00;64.00;;;;;;5101549;28;20182;-88
2021/10/21 04:17:35;;;;;;;8.57;2.90;;;15.00;65.60;;;;;;5083129;28;20205;-90
2021/10/21 04:20:01;;;;;;;5.83;2.30;;;15.00;64.90;;;;;;5096955;28;20207;-83
2021/10/21 04:22:27;;;;;;;6.30;2.10;;;14.90;66.60;;;;;;5082872;28;20288;-87
2021/10/21 04:24:53;;;;;;;7.97;2.53;;;15.00;65.60;;;;;;5099371;28;20209;-89
2021/10/21 04:27:18;;;;;;;5.93;2.13;;;14.90;66.70;;;;;;5081691;28;20194;-89
2021/10/21 04:29:44;;;;;;;5.40;1.90;;;14.90;65.90;;;;;;5099908;28;20220;-89
2021/10/21 04:32:10;;;;;;;8.03;2.10;;;14.80;68.50;;;;;;5101039;28;20190;-86
2021/10/21 04:34:36;;;;;;;5.47;2.27;;;14.80;68.30;;;;;;5097062;28;20569;-88
2021/10/21 04:37:02;;;;;;;7.57;2.57;;;14.80;66.80;;;;;;5095423;28;20235;-87
2021/10/21 04:39:28;;;;;;;5.90;2.40;;;14.80;67.30;;;;;;5084763;28;20225;-88
2021/10/21 04:41:54;;;;;;;6.27;2.40;;;14.70;68.70;;;;;;5100818;28;20210;-88
2021/10/21 04:44:19;;;;;;;6.90;3.57;;;14.80;66.00;;;;;;5112880;28;20232;-85
2021/10/21 04:46:45;;;;;;;6.13;1.77;;;14.70;67.20;;;;;;5113507;28;20190;-89
2021/10/21 04:49:11;;;;;;;6.70;2.37;;;14.70;65.90;;;;;;5102321;28;20213;-89
2021/10/21 04:51:37;;;;;;;8.23;2.13;;;14.70;66.80;;;;;;5086724;28;20205;-86
2021/10/21 04:54:03;;;;;;;7.17;2.13;;;14.70;65.10;;;;;;5116680;28;20244;-84
2021/10/21 04:56:28;;;;;;;5.90;2.13;;;14.70;65.80;;;;;;5117372;28;20173;-84
2021/10/21 04:58:54;;;;;;;6.40;2.50;;;14.70;65.80;;;;;;5085799;28;20232;-87
2021/10/21 05:01:19;;;;;;;6.83;2.10;;;14.60;65.30;;;;;;5101294;28;20205;-86
2021/10/21 05:03:45;;;;;;;12.97;2.80;;;14.70;64.90;;;;;;5080450;28;20186;-85
2021/10/21 05:06:11;;;;;;;7.17;2.70;;;14.70;65.90;;;;;;5094665;28;20181;-85
2021/10/21 05:08:37;;;;;;;15.83;2.87;;;14.60;65.80;;;;;;5099527;28;20217;-84
2021/10/21 05:11:02;;;;;;;9.87;2.40;;;14.80;62.70;;;;;;5072562;28;20202;-87
2021/10/21 05:13:28;;;;;;;8.57;2.60;;;14.80;64.90;;;;;;5104442;28;20228;-87
2021/10/21 05:15:54;;;;;;;11.67;2.77;;;14.70;65.20;;;;;;5099756;28;20216;-86
2021/10/21 05:18:20;;;;;;;9.63;2.97;;;14.70;65.30;;;;;;5080868;28;20265;-87
2021/10/21 05:20:45;;;;;;;9.83;2.50;;;14.60;65.10;;;;;;5098701;28;20743;-86
2021/10/21 05:23:12;;;;;;;8.33;2.60;;;14.70;64.40;;;;;;5100558;28;20280;-84
2021/10/21 05:25:38;;;;;;;8.50;2.83;;;14.60;64.10;;;;;;5062251;28;20715;-87
2021/10/21 05:28:04;;;;;;;13.07;3.00;;;14.60;64.20;;;;;;5096726;28;20212;-87
2021/10/21 05:30:31;;;;;;;7.33;2.67;;;14.70;63.40;;;;;;5095991;28;20304;-88
2021/10/21 05:32:57;;;;;;;8.13;2.43;;;14.60;63.90;;;;;;5094381;28;20202;-86
2021/10/21 05:35:23;;;;;;;5.90;2.30;;;14.70;63.70;;;;;;5094596;28;20234;-87
2021/10/21 05:37:49;;;;;;;7.53;2.27;;;14.70;63.90;;;;;;5095488;28;20201;-86
2021/10/21 05:40:15;;;;;;;7.43;2.70;;;14.70;63.70;;;;;;5077163;28;20233;-86
2021/10/21 05:42:40;;;;;;;7.10;2.50;;;14.50;64.10;;;;;;5078356;28;20181;-85
2021/10/21 05:45:07;;;;;;;7.90;3.20;;;14.70;62.80;;;;;;5097646;28;20632;-87
2021/10/21 05:47:35;;;;;;;11.57;2.70;;;14.70;63.50;;;;;;5100974;28;20198;-87
2021/10/21 05:50:02;;;;;;;11.80;3.03;;;14.60;62.80;;;;;;5083142;28;20226;-85
2021/10/21 05:52:28;;;;;;;7.43;2.83;;;14.60;63.50;;;;;;5065344;28;20277;-88
2021/10/21 05:54:54;;;;;;;7.83;2.57;;;14.60;63.40;;;;;;5087329;28;20298;-87
2021/10/21 05:57:20;;;;;;;8.17;2.47;;;14.50;64.20;;;;;;5066013;28;20213;-88
2021/10/21 05:59:46;;;;;;;7.43;2.53;;;14.50;63.70;;;;;;5093584;28;20214;-88
2021/10/21 06:02:12;;;;;;;8.43;2.50;;;14.50;63.60;;;;;;5092322;28;20218;-86
2021/10/21 06:04:37;;;;;;;9.17;2.70;;;14.50;63.70;;;;;;5092908;28;20213;-86
2021/10/21 06:07:03;;;;;;;8.10;2.60;;;14.60;63.80;;;;;;5092192;28;20556;-87
2021/10/21 06:09:29;;;;;;;7.53;2.57;;;14.50;64.60;;;;;;5093762;28;20683;-86
2021/10/21 06:11:55;;;;;;;5.10;2.37;;;14.50;64.40;;;;;;5077088;28;20267;-85
2021/10/21 06:14:20;;;;;;;9.50;2.60;;;14.40;65.10;;;;;;5078059;28;20217;-86
2021/10/21 06:16:48;;;;;;;9.40;2.40;;;14.40;63.50;;;;;;5098140;28;20182;-86
2021/10/21 06:19:15;;;;;;;11.70;3.10;;;14.50;62.50;;;;;;5093729;28;20206;-87
2021/10/21 06:21:46;;;;;;;8.87;2.97;;;14.50;64.60;;;;;;5083790;28;20200;-87
2021/10/21 06:24:13;;;;;;;8.23;1.90;;;14.50;61.40;;;;;;5107577;28;20206;-86
2021/10/21 06:26:39;;;;;;;5.37;1.90;;;14.60;61.30;;;;;;5102080;28;20245;-87
2021/10/21 06:29:05;;;;;;;8.87;2.10;;;14.60;62.20;;;;;;5096824;28;20699;-86
2021/10/21 06:31:30;;;;;;;10.20;2.73;;;14.50;61.70;;;;;;5099672;28;20584;-87
2021/10/21 06:33:56;;;;;;;10.77;2.97;;;14.50;62.00;;;;;;5080640;28;20502;-88
2021/10/21 06:36:22;;;;;;;6.33;2.27;;;14.50;62.80;;;;;;5095502;28;20200;-89
2021/10/21 06:38:47;;;;;;;5.67;2.30;;;14.60;61.50;;;;;;5100277;28;20655;-88
2021/10/21 06:41:13;;;;;;;6.97;1.90;;;14.50;62.30;;;;;;5100188;28;20197;-88
2021/10/21 06:43:39;;;;;;;6.37;2.50;;;14.50;62.50;;;;;;5096693;28;20198;-87
2021/10/21 06:46:06;;;;;;;3.80;2.10;;;14.50;63.70;;;;;;5093751;28;20201;-88
2021/10/21 06:48:32;;;;;;;7.93;2.10;;;14.40;64.00;;;;;;5076619;28;20206;-88
2021/10/21 06:50:57;;;;;;;9.13;2.50;;;14.40;64.20;;;;;;5093441;28;20263;-88
2021/10/21 06:53:23;;;;;;;6.53;2.07;;;14.40;63.90;;;;;;5073228;28;20601;-88
2021/10/21 06:55:49;;;;;;;5.30;2.20;;;14.40;63.40;;;;;;5078119;28;20246;-89
2021/10/21 06:58:15;;;;;;;7.27;1.70;;;14.40;63.60;;;;;;5094199;28;20181;-88
2021/10/21 07:00:42;;;;;;;7.57;2.07;;;14.40;63.70;;;;;;5095300;28;20209;-88
2021/10/21 07:03:09;;;;;;;5.33;1.80;;;14.30;64.80;;;;;;5096557;28;20196;-88
2021/10/21 07:05:39;;;;;;;7.33;1.90;;;14.20;65.20;;;;;;5097811;28;20670;-89
2021/10/21 07:08:06;;;;;;;5.40;1.70;;;14.20;64.20;;;;;;5094533;28;20226;-88
2021/10/21 07:10:33;;;;;;;9.47;2.20;;;14.20;64.80;;;;;;5081270;28;20756;-88
2021/10/21 07:13:02;;;;;;;8.37;2.00;;;14.20;63.20;;;;;;5062586;28;20230;-88
2021/10/21 07:15:28;;;;;;;3.93;1.60;;;14.10;63.40;;;;;;5095229;28;20184;-86
2021/10/21 07:17:53;;;;;;;5.13;1.60;;;14.10;63.40;;;;;;5093826;28;20201;-89
2021/10/21 07:20:19;;;;;;;7.80;1.63;;;14.10;64.40;;;;;;5077390;28;20573;-89
2021/10/21 07:22:45;;;;;;;3.43;1.50;;;14.00;65.60;;;;;;5093945;28;20314;-89
2021/10/21 07:25:11;;;;;;;2.03;1.20;;;14.00;65.40;;;;;;5073148;28;20298;-88
2021/10/21 07:27:37;;;;;;;4.97;1.50;;;14.10;66.00;;;;;;5094523;28;20340;-89
2021/10/21 07:30:04;;;;;;;6.73;2.07;;;14.00;65.60;;;;;;5100669;28;20214;-89
2021/10/21 07:32:30;;;;;;;3.33;1.30;;;14.00;65.80;;;;;;5097345;28;20214;-88
2021/10/21 07:34:55;;;;;;;3.87;1.40;;;14.00;65.80;;;;;;5095036;28;20220;-89
2021/10/21 07:37:21;;;;;;;2.10;1.10;;;14.00;66.10;;;;;;5109047;28;20200;-88
2021/10/21 07:39:48;;;;;;;4.40;1.40;;;13.90;64.60;;;;;;5096959;28;20748;-88
2021/10/21 07:42:14;;;;;;;6.47;1.40;;;13.80;66.90;;;;;;5106994;28;20255;-88
2021/10/21 07:44:50;;;;;;;3.40;1.40;;;13.80;67.20;;;;;;5115762;28;20209;-88
2021/10/21 07:47:16;;;;;;;4.97;1.50;;;13.80;68.10;;;;;;5110080;28;20218;-89
2021/10/21 07:49:43;;;;;;;4.73;1.60;;;13.70;68.00;;;;;;5100754;28;20261;-88
2021/10/21 07:52:09;;;;;;;4.73;1.60;;;13.60;69.30;;;;;;5100466;28;20200;-89
2021/10/21 07:54:35;;;;;;;5.07;1.60;;;13.60;70.20;;;;;;5090810;28;20215;-88
2021/10/21 07:57:02;;;;;;;2.77;1.67;;;13.60;70.40;;;;;;5074626;28;20324;-88
2021/10/21 07:59:28;;;;;;;6.27;1.60;;;13.50;71.70;;;;;;5092249;28;20280;-89
2021/10/21 08:01:58;;;;;;;5.57;2.10;;;13.40;70.60;;;;;;5087094;28;20296;-90
2021/10/21 08:04:26;;;;;;;1.80;1.13;;;13.40;71.80;;;;;;5074039;28;20563;-89
2021/10/21 08:06:52;;;;;;;3.40;1.33;;;13.40;71.10;;;;;;5090834;28;20487;-89
2021/10/21 08:09:18;;;;;;;1.60;1.30;;;13.40;72.70;;;;;;5073541;28;20708;-89
2021/10/21 08:11:47;;;;;;;1.53;1.30;;;13.30;74.00;;;;;;5092588;28;20591;-89
2021/10/21 08:14:13;;;;;;;5.87;1.50;;;13.20;73.80;;;;;;5092110;28;20636;-89
2021/10/21 08:16:38;;;;;;;2.47;1.10;;;13.10;74.30;;;;;;5092353;28;20180;-87
2021/10/21 08:19:05;;;;;;;1.40;1.30;;;13.10;74.40;;;;;;5090611;28;21159;-89
2021/10/21 08:21:35;;;;;;;1.40;1.30;;;13.10;74.60;;;;;;5093100;28;20183;-89
2021/10/21 08:24:02;;;;;;;2.60;1.20;;;13.10;74.40;;;;;;5074018;28;20203;-89
2021/10/21 08:26:28;;;;;;;2.17;1.40;;;13.10;74.30;;;;;;5090769;28;20323;-89
2021/10/21 08:28:54;;;;;;;1.30;1.20;;;13.00;74.50;;;;;;5092414;28;20225;-89
2021/10/21 08:31:20;;;;;;;5.30;1.30;;;13.00;74.50;;;;;;5055903;28;20210;-89
2021/10/21 08:33:47;;;;;;;2.60;1.23;;;13.00;74.00;;;;;;5091070;28;20284;-89
2021/10/21 08:36:20;;;;;;;2.50;1.53;;;13.00;74.60;;;;;;5092368;28;20211;-90
2021/10/21 08:38:49;;;;;;;2.47;1.40;;;13.00;75.50;;;;;;5091581;28;20781;-90
2021/10/21 08:41:16;;;;;;;2.27;1.20;;;12.90;75.70;;;;;;5091249;28;20195;-89
2021/10/21 08:43:43;;;;;;;1.30;1.07;;;12.80;75.70;;;;;;5090836;28;20266;-88
2021/10/21 08:46:11;;;;;;;3.10;1.30;;;12.90;73.80;;;;;;5092323;28;20202;-89
2021/10/21 08:48:40;;;;;;;3.37;1.30;;;12.80;73.80;;;;;;5090236;28;20194;-89
2021/10/21 08:51:07;;;;;;;2.27;1.43;;;12.80;73.60;;;;;;5091428;28;20240;-89
2021/10/21 08:53:34;;;;;;;2.43;1.47;;;12.90;73.40;;;;;;5092507;28;20198;-89
2021/10/21 08:56:00;;;;;;;4.40;2.13;;;12.90;73.20;;;;;;5103918;28;20193;-88
2021/10/21 08:58:27;;;;;;;1.47;1.20;;;12.90;71.60;;;;;;5113170;28;20254;-89
2021/10/21 09:01:07;;;;;;;2.00;1.30;;;12.90;72.50;;;;;;5093603;28;20237;-88
2021/10/21 09:03:50;;;;;;;1.47;1.30;;;12.90;71.70;;;;;;5093486;28;20289;-88
2021/10/21 09:06:30;;;;;;;4.47;1.27;;;12.90;71.40;;;;;;5093707;28;20191;-89
2021/10/21 09:08:57;;;;;;;3.73;1.20;;;13.00;71.10;;;;;;5074847;28;20301;-89
2021/10/21 09:11:23;;;;;;;4.87;1.20;;;12.90;70.80;;;;;;5094397;28;20322;-90
2021/10/21 09:14:08;;;;;;;3.50;1.90;;;12.90;71.30;;;;;;5092092;28;20211;-89
2021/10/21 09:16:33;;;;;;;2.97;1.30;;;12.90;70.60;;;;;;5072150;28;21246;-88
2021/10/21 09:19:11;;;;;;;2.43;1.33;;;12.90;71.90;;;;;;5092783;28;20195;-88
2021/10/21 09:21:41;;;;;;;3.73;1.50;;;12.80;72.10;;;;;;5071734;28;20234;-88
2021/10/21 09:24:30;;;;;;;1.83;1.30;;;12.80;71.20;;;;;;5089044;28;20203;-89
2021/10/21 09:27:12;;;;;;;1.57;1.10;;;12.70;72.70;;;;;;5090706;28;20186;-89
2021/10/21 09:29:39;;;;;;;4.00;1.60;;;12.70;71.70;;;;;;5092807;28;20199;-89
2021/10/21 09:32:39;;;;;;;2.10;1.40;;;12.70;71.80;;;;;;5071566;28;20194;-90
2021/10/21 09:35:07;;;;;;;2.33;1.30;;;12.80;72.80;;;;;;5076472;28;20209;-89
2021/10/21 09:37:35;;;;;;;1.83;1.73;;;12.80;72.20;;;;;;5090572;28;20194;-90
2021/10/21 09:40:03;;;;;;;3.57;1.57;;;12.90;72.50;;;;;;5088736;28;20285;-90
2021/10/21 09:42:34;;;;;;;4.20;1.93;;;12.90;72.30;;;;;;5072335;28;20184;-89
2021/10/21 09:45:13;;;;;;;2.67;1.37;;;12.80;71.50;;;;;;5091584;28;20633;-89
2021/10/21 09:47:44;;;;;;;2.50;1.50;;;12.80;72.70;;;;;;5089914;28;20217;-89
2021/10/21 09:50:18;;;;;;;3.53;1.40;;;12.80;71.70;;;;;;5070147;28;20230;-90
2021/10/21 09:53:09;;;;;;;2.57;1.60;;;12.90;71.70;;;;;;5071167;28;20203;-86
2021/10/21 09:55:39;;;;;;;3.70;1.83;;;12.90;72.20;;;;;;5090639;28;20179;-87
2021/10/21 09:58:11;;;;;;;3.10;1.40;;;12.90;70.50;;;;;;5070301;28;20191;-88
2021/10/21 10:00:39;;;;;;;3.37;1.87;;;12.90;71.60;;;;;;5091003;28;20295;-87
2021/10/21 10:03:31;;;;;;;13.80;9.13;;;12.90;71.50;;;;;;5090570;28;20217;-87
2021/10/21 10:05:57;;;;;;;2.53;1.80;;;13.00;70.10;;;;;;5087605;28;20653;-89
2021/10/21 10:08:24;;;;;;;4.10;2.20;;;13.10;69.80;;;;;;5089771;28;20191;-87
2021/10/21 10:10:55;;;;;;;4.23;1.67;;;13.40;68.70;;;;;;5074768;28;20264;-90
2021/10/21 10:13:22;;;;;;;5.67;2.20;;;13.40;68.80;;;;;;5090075;28;20215;-87
2021/10/21 10:15:50;;;;;;;2.60;1.60;;;13.60;66.40;;;;;;5088607;28;20201;-89
2021/10/21 10:18:19;;;;;;;5.73;1.80;;;13.80;68.30;;;;;;5089800;28;20194;-88
2021/10/21 10:20:52;;;;;;;4.70;2.30;;;14.20;66.00;;;;;;5091150;28;20224;-87
2021/10/21 10:23:20;;;;;;;2.70;1.73;;;14.20;65.50;;;;;;5094625;28;20197;-86
2021/10/21 10:25:47;;;;;;;3.57;1.90;;;14.30;65.90;;;;;;5112576;28;20182;-86
2021/10/21 10:28:14;;;;;;;7.47;2.43;;;14.50;66.20;;;;;;5101353;28;20660;-87
2021/10/21 10:30:52;;;;;;;2.77;1.60;;;14.40;64.50;;;;;;5090197;28;20660;-88
2021/10/21 10:33:32;;;;;;;5.00;1.80;;;14.40;64.70;;;;;;5102184;28;20273;-85
2021/10/21 10:36:30;;;;;;;4.57;2.00;;;14.20;64.80;;;;;;5113831;28;20198;-85
2021/10/21 10:39:02;;;;;;;3.93;2.10;;;14.20;64.90;;;;;;5095176;28;20667;-88
2021/10/21 10:41:52;;;;;;;3.53;1.90;;;14.20;63.90;;;;;;5072265;28;20190;-87
2021/10/21 10:44:36;;;;;;;6.80;1.97;;;14.20;64.00;;;;;;5071587;28;20201;-88
2021/10/21 10:47:10;;;;;;;4.37;2.13;;;14.30;63.50;;;;;;5091243;28;20593;-86
2021/10/21 10:49:40;;;;;;;5.60;2.00;;;14.10;62.60;;;;;;5089974;28;20223;-88
2021/10/21 10:52:09;;;;;;;3.20;2.20;;;14.00;62.20;;;;;;5088478;28;20232;-87
2021/10/21 10:54:43;;;;;;;5.27;1.80;;;14.00;62.80;;;;;;5089622;28;20214;-88
2021/10/21 10:57:29;;;;;;;5.67;1.80;;;14.00;63.00;;;;;;5073775;28;20680;-89
2021/10/21 10:59:55;;;;;;;5.30;2.40;;;14.00;62.60;;;;;;5076401;28;20232;-87
2021/10/21 11:02:24;;;;;;;1.93;1.40;;;13.80;61.80;;;;;;5077088;28;20186;-88
2021/10/21 11:04:53;;;;;;;4.80;2.07;;;13.80;60.50;;;;;;5096162;28;20190;-87
2021/10/21 11:07:31;;;;;;;5.13;1.70;;;13.80;62.10;;;;;;5092830;28;20635;-88
2021/10/21 11:10:18;;;;;;;6.33;1.90;;;14.00;61.90;;;;;;5091453;28;20213;-88
2021/10/21 11:12:48;;;;;;;2.50;1.50;;;14.10;60.30;;;;;;5098723;28;20181;-88
2021/10/21 11:15:30;;;;;;;4.33;1.70;;;14.30;60.30;;;;;;5096660;28;20186;-89
2021/10/21 11:17:57;;;;;;;2.10;1.60;;;14.10;61.80;;;;;;5095381;28;20197;-89
2021/10/21 11:20:44;;;;;;;2.00;1.80;;;14.20;59.80;;;;;;5095673;28;20223;-89
2021/10/21 11:23:30;;;;;;;2.77;1.90;;;14.20;59.60;;;;;;5094405;28;20193;-89
2021/10/21 11:26:01;;;;;;;5.37;1.97;;;14.20;60.70;;;;;;5084858;28;20202;-88
2021/10/21 11:28:29;;;;;;;2.73;1.77;;;14.30;60.00;;;;;;5078018;28;20205;-89
2021/10/21 11:30:55;;;;;;;3.50;1.80;;;14.50;61.10;;;;;;5097632;28;20693;-89
2021/10/21 11:33:21;;;;;;;4.40;1.87;;;14.50;60.80;;;;;;5099839;28;20237;-89
2021/10/21 11:35:47;;;;;;;4.37;1.73;;;14.70;59.40;;;;;;5068680;28;20190;-89
2021/10/21 11:38:15;;;;;;;3.43;1.60;;;14.60;57.10;;;;;;5102259;28;20188;-83
2021/10/21 11:40:46;;;;;;;6.13;1.63;;;14.80;55.10;;;;;;5100033;28;20277;-88
2021/10/21 11:43:25;;;;;;;5.60;2.07;;;14.80;56.40;;;;;;5100811;28;20672;-86
2021/10/21 11:45:56;;;;;;;6.07;2.00;;;15.30;54.30;;;;;;5098526;28;20194;-85
2021/10/21 11:48:29;;;;;;;5.37;2.30;;;15.80;54.50;;;;;;5095247;28;20412;-88
2021/10/21 11:50:55;;;;;;;2.40;1.90;;;15.70;55.10;;;;;;5091836;28;20229;-88
2021/10/21 11:53:22;;;;;;;5.67;1.80;;;15.60;53.70;;;;;;5075428;28;20223;-88
2021/10/21 11:55:51;;;;;;;3.77;1.83;;;15.60;53.10;;;;;;5074306;28;20441;-86
2021/10/21 11:58:19;;;;;;;4.20;1.80;;;15.30;53.20;;;;;;5074200;28;20685;-88
2021/10/21 12:00:56;;;;;;;6.33;2.10;;;15.40;52.80;;;;;;5076905;28;20237;-88
2021/10/21 12:03:42;;;;;;;3.47;1.83;;;15.70;53.10;;;;;;5094280;28;20233;-87
2021/10/21 12:06:13;;;;;;;2.43;1.70;;;15.70;52.00;;;;;;5097485;28;20198;-88
2021/10/21 12:08:47;;;;;;;3.10;1.60;;;16.10;52.20;;;;;;5093892;28;20248;-87
2021/10/21 12:11:18;;;;;;;4.83;2.03;;;16.30;49.00;;;;;;5092209;28;20189;-87
2021/10/21 12:13:44;;;;;;;3.17;1.90;;;16.60;48.10;;;;;;5095201;28;20202;-88
2021/10/21 12:16:18;;;;;;;4.70;2.00;;;16.60;49.30;;;;;;5076943;28;20237;-88
2021/10/21 12:18:44;;;;;;;5.33;2.00;;;16.90;50.00;;;;;;5075639;28;20199;-87
2021/10/21 12:21:10;;;;;;;1.90;1.57;;;17.10;47.50;;;;;;5093623;28;20187;-88
2021/10/21 12:23:47;;;;;;;3.00;2.00;;;17.10;48.20;;;;;;5074424;28;20199;-88
2021/10/21 12:26:29;;;;;;;3.13;1.80;;;17.20;48.10;;;;;;5096565;28;20194;-88
2021/10/21 12:29:01;;;;;;;2.03;1.60;;;17.20;47.20;;;;;;5093193;28;20269;-86
2021/10/21 12:31:28;;;;;;;3.27;2.00;;;17.10;47.30;;;;;;5088567;28;20674;-88
2021/10/21 12:34:00;;;;;;;3.87;1.90;;;17.30;48.00;;;;;;5075471;28;20237;-88
2021/10/21 12:36:28;;;;;;;2.27;1.73;;;17.20;48.00;;;;;;5107200;28;20193;-84
2021/10/21 12:39:08;;;;;;;4.27;2.10;;;17.40;47.00;;;;;;5115057;28;20210;-86
2021/10/21 12:41:57;;;;;;;3.73;1.70;;;17.30;48.30;;;;;;5107186;28;20292;-88
2021/10/21 12:44:29;;;;;;;3.10;1.90;;;17.70;47.80;;;;;;5076345;28;20569;-89
2021/10/21 12:47:22;;;;;;;2.60;1.83;;;17.70;46.00;;;;;;5099049;28;20178;-87
2021/10/21 12:49:58;;;;;;;3.47;1.70;;;17.30;47.00;;;;;;5097756;28;20325;-87
2021/10/21 12:52:41;;;;;;;3.63;2.07;;;16.90;47.80;;;;;;5093549;28;20187;-89
2021/10/21 12:55:18;;;;;;;2.47;1.67;;;16.60;48.30;;;;;;5097675;28;20222;-88
2021/10/21 12:57:54;;;;;;;4.03;1.77;;;16.20;49.10;;;;;;5098809;28;20178;-88
2021/10/21 13:00:30;;;;;;;3.43;1.53;;;16.40;50.10;;;;;;5099051;28;20210;-88
2021/10/21 13:02:59;;;;;;;5.20;2.67;;;16.40;48.80;;;;;;5097278;28;20238;-88
2021/10/21 13:05:25;;;;;;;5.20;1.77;;;16.10;50.20;;;;;;5099177;28;20209;-86
2021/10/21 13:07:51;;;;;;;3.80;1.90;;;16.10;50.50;;;;;;5080540;28;20902;-87
2021/10/21 13:10:17;;;;;;;4.70;2.20;;;16.10;50.40;;;;;;5097872;28;20316;-88